Time;durP1;ratioP1;P1;durP2;ratioP2;P2;SDS_P1;SDS_P2;PMS_P1;PMS_P2;Temp;Humidity;BMP_temperature;BMP_pressure;BME280_temperature;BME280_humidity;BME280_pressure;Samples;Min_cycle;Max_cycle;Signal;HPM_P1;HPM_P2
2024/02/21 00:00:11;;;;;;;0.20;0.20;;;;;;;8.56;65.29;102030.69;4992826;28;20535;-86
2024/02/21 00:02:37;;;;;;;0.20;0.20;;;;;;;8.66;65.25;102046.88;4992767;28;20080;-86
2024/02/21 00:05:03;;;;;;;0.20;0.20;;;;;;;8.58;65.14;102035.81;4992797;28;20034;-86
2024/02/21 00:07:28;;;;;;;0.20;0.20;;;;;;;8.57;65.25;102049.59;4992364;28;20053;-86
2024/02/21 00:09:54;;;;;;;0.20;0.20;;;;;;;8.63;65.56;102059.78;4992728;28;20445;-86
2024/02/21 00:12:21;;;;;;;0.20;0.20;;;;;;;8.51;65.43;102034.22;4992278;28;20074;-86
2024/02/21 00:14:46;;;;;;;0.20;0.20;;;;;;;8.56;65.55;102053.06;4993823;28;20062;-85
2024/02/21 00:17:12;;;;;;;0.20;0.20;;;;;;;8.47;65.89;102043.75;4994162;28;20030;-85
2024/02/21 00:19:37;;;;;;;0.20;0.20;;;;;;;8.53;65.77;102042.78;4992418;28;20489;-85
2024/02/21 00:22:03;;;;;;;0.20;0.20;;;;;;;8.49;65.64;102025.66;4991870;28;20041;-86
2024/02/21 00:24:29;;;;;;;0.20;0.20;;;;;;;8.46;65.82;102041.22;4992477;28;20073;-86
2024/02/21 00:26:54;;;;;;;0.20;0.20;;;;;;;8.50;65.58;102032.53;4992315;28;20068;-86
2024/02/21 00:29:20;;;;;;;0.20;0.20;;;;;;;8.38;66.12;102040.50;4992300;28;20066;-86
2024/02/21 00:31:45;;;;;;;0.20;0.20;;;;;;;8.30;66.43;102038.00;5008523;28;20018;-84
2024/02/21 00:34:12;;;;;;;0.20;0.20;;;;;;;8.19;65.95;102006.41;4992238;28;20042;-86
2024/02/21 00:36:38;;;;;;;0.10;0.10;;;;;;;8.29;66.23;102033.72;4991823;28;20515;-86
2024/02/21 00:41:48;;;;;;;0.20;0.20;;;;;;;8.25;66.60;102042.38;4992060;28;20066;-85
2024/02/21 00:44:13;;;;;;;0.20;0.20;;;;;;;8.20;66.62;102024.41;4992254;28;20046;-86
2024/02/21 00:46:39;;;;;;;0.20;0.20;;;;;;;8.25;66.60;102021.75;4993081;28;20085;-86
2024/02/21 00:49:05;;;;;;;0.20;0.20;;;;;;;8.28;66.67;102025.13;5008184;28;20030;-84
2024/02/21 00:51:30;;;;;;;0.20;0.20;;;;;;;8.21;66.42;102009.78;4992080;28;20058;-86
2024/02/21 00:53:56;;;;;;;0.20;0.20;;;;;;;8.10;66.99;102003.97;4991993;28;20492;-86
2024/02/21 00:56:21;;;;;;;0.20;0.20;;;;;;;8.17;67.03;102029.63;5008179;28;20034;-84
2024/02/21 00:58:47;;;;;;;0.20;0.20;;;;;;;8.08;67.37;102029.78;4991683;28;20061;-86
2024/02/21 01:01:13;;;;;;;0.20;0.20;;;;;;;8.10;67.18;102011.69;4991565;28;20034;-85
2024/02/21 01:03:40;;;;;;;0.20;0.20;;;;;;;8.13;67.27;102016.81;4991782;28;20026;-86
2024/02/21 01:06:06;;;;;;;0.20;0.20;;;;;;;8.20;66.91;102011.53;4975326;28;20093;-86
2024/02/21 01:08:32;;;;;;;0.20;0.20;;;;;;;8.18;66.90;102015.84;4991790;28;20096;-86
2024/02/21 01:10:57;;;;;;;0.20;0.20;;;;;;;8.05;67.03;101998.88;4992905;28;20481;-86
2024/02/21 01:13:23;;;;;;;0.20;0.20;;;;;;;8.00;66.81;101985.22;5007683;28;20444;-85
2024/02/21 01:15:48;;;;;;;0.20;0.20;;;;;;;8.05;67.22;102002.31;5007809;28;20035;-86
2024/02/21 01:18:14;;;;;;;0.20;0.20;;;;;;;8.06;67.13;102005.72;4992802;28;20030;-86
2024/02/21 01:20:40;;;;;;;0.20;0.20;;;;;;;8.02;67.34;102002.38;4991193;28;20037;-86
2024/02/21 01:23:05;;;;;;;0.20;0.20;;;;;;;7.84;67.42;101978.63;4992758;28;20034;-86
2024/02/21 01:25:31;;;;;;;0.20;0.20;;;;;;;7.94;67.56;101995.63;5007349;28;20480;-85
2024/02/21 01:27:56;;;;;;;0.20;0.20;;;;;;;8.00;67.37;102000.69;4991365;28;20168;-86
2024/02/21 01:30:22;;;;;;;0.20;0.20;;;;;;;7.84;67.52;101965.72;4991213;28;20105;-86
2024/02/21 01:32:47;;;;;;;0.20;0.20;;;;;;;8.00;67.54;101995.53;5007627;28;20030;-86
2024/02/21 01:35:13;;;;;;;0.20;0.20;;;;;;;7.84;67.66;101968.31;4990974;28;20037;-84
2024/02/21 01:37:38;;;;;;;0.20;0.20;;;;;;;7.98;67.68;101997.31;4992596;28;20030;-85
2024/02/21 01:40:05;;;;;;;0.20;0.20;;;;;;;8.05;67.25;101989.41;4990743;28;20057;-85
2024/02/21 01:42:30;;;;;;;0.20;0.20;;;;;;;7.94;67.79;101990.47;4990670;28;20130;-86
2024/02/21 01:44:56;;;;;;;0.20;0.20;;;;;;;7.81;68.03;101973.53;4991134;28;20113;-86
2024/02/21 01:47:21;;;;;;;0.20;0.20;;;;;;;7.87;67.93;101973.44;4990728;28;20027;-86
2024/02/21 01:49:47;;;;;;;0.20;0.20;;;;;;;7.89;67.48;101967.38;4990566;28;20110;-85
2024/02/21 01:52:13;;;;;;;0.20;0.20;;;;;;;7.95;67.79;101972.41;4990648;28;20026;-86
2024/02/21 01:54:39;;;;;;;0.20;0.20;;;;;;;7.96;67.73;101973.25;4974778;28;20510;-86
2024/02/21 01:57:05;;;;;;;0.20;0.20;;;;;;;7.94;67.70;101969.88;5007199;28;20166;-85
2024/02/21 01:59:30;;;;;;;0.20;0.20;;;;;;;7.82;68.07;101970.91;4990861;28;20023;-85
2024/02/21 02:01:57;;;;;;;0.20;0.20;;;;;;;7.83;68.27;101975.19;4990267;28;20049;-85
2024/02/21 02:04:22;;;;;;;0.20;0.20;;;;;;;7.74;68.40;101973.59;4990395;28;20034;-85
2024/02/21 02:06:48;;;;;;;0.20;0.20;;;;;;;7.76;68.75;101977.00;4990646;28;20034;-86
2024/02/21 02:09:14;;;;;;;0.20;0.20;;;;;;;7.74;68.64;101975.34;4990446;28;20508;-86
2024/02/21 02:11:39;;;;;;;0.20;0.20;;;;;;;7.75;69.02;101979.59;4990591;28;20113;-85
2024/02/21 02:14:05;;;;;;;0.20;0.20;;;;;;;7.68;68.72;101963.41;4990702;28;20169;-86
2024/02/21 02:16:30;;;;;;;0.20;0.20;;;;;;;7.56;68.66;101950.72;4990767;28;20113;-86
2024/02/21 02:18:56;;;;;;;0.20;0.20;;;;;;;7.73;68.91;101971.91;4990055;28;20108;-87
2024/02/21 02:21:33;;;;;;;0.20;0.20;;;;;;;7.68;68.90;101972.88;4990344;28;20084;-86
2024/02/21 02:23:59;;;;;;;0.20;0.20;;;;;;;7.63;69.10;101970.34;5006290;28;20432;-86
2024/02/21 02:26:24;;;;;;;0.20;0.20;;;;;;;7.59;69.00;101965.28;4990249;28;20038;-86
2024/02/21 02:28:50;;;;;;;0.20;0.20;;;;;;;7.50;69.37;101968.84;4991309;28;20081;-86
2024/02/21 02:31:15;;;;;;;0.20;0.20;;;;;;;7.43;69.70;101962.06;4990310;28;20030;-85
2024/02/21 02:33:44;;;;;;;0.20;0.20;;;;;;;7.29;70.25;101948.56;5005988;28;20432;-84
2024/02/21 02:36:09;;;;;;;0.20;0.20;;;;;;;7.38;70.13;101966.47;4973391;28;20603;-86
2024/02/21 02:38:35;;;;;;;0.20;0.20;;;;;;;7.36;69.92;101976.75;5006302;28;20034;-85
2024/02/21 02:41:00;;;;;;;0.20;0.20;;;;;;;7.28;70.38;101970.03;4989977;28;20512;-86
2024/02/21 02:43:26;;;;;;;0.20;0.20;;;;;;;7.21;70.30;101956.38;5006209;28;20061;-85
2024/02/21 02:45:51;;;;;;;0.20;0.20;;;;;;;7.29;70.54;101976.88;4990070;28;20026;-86
2024/02/21 02:48:18;;;;;;;0.20;0.20;;;;;;;7.26;70.62;101969.19;4973556;28;20031;-85
2024/02/21 02:50:43;;;;;;;0.20;0.20;;;;;;;7.30;70.39;101970.84;4991295;28;20122;-86
2024/02/21 02:53:09;;;;;;;0.20;0.20;;;;;;;7.34;70.59;101967.34;4989931;28;20121;-85
2024/02/21 02:55:35;;;;;;;0.20;0.20;;;;;;;7.22;70.78;101970.09;4973780;28;20023;-86
2024/02/21 02:58:01;;;;;;;0.20;0.20;;;;;;;7.35;70.27;101971.63;4991143;28;20029;-86
2024/02/21 03:00:27;;;;;;;0.20;0.20;;;;;;;7.40;70.48;101972.44;4990058;28;20027;-85
2024/02/21 03:02:52;;;;;;;0.20;0.20;;;;;;;7.37;70.22;101972.44;5005550;28;20463;-85
2024/02/21 03:05:21;;;;;;;0.20;0.20;;;;;;;7.33;70.17;101973.38;4990226;28;20034;-84
2024/02/21 03:07:47;;;;;;;0.20;0.20;;;;;;;7.30;70.25;101976.00;5006207;28;20026;-85
2024/02/21 03:10:13;;;;;;;0.20;0.20;;;;;;;7.27;70.57;101976.03;4989913;28;20035;-85
2024/02/21 03:12:38;;;;;;;0.20;0.20;;;;;;;7.35;70.20;101979.34;4989929;28;20041;-85
2024/02/21 03:15:05;;;;;;;0.20;0.20;;;;;;;7.26;70.14;101964.88;4989923;28;20117;-86
2024/02/21 03:17:31;;;;;;;0.20;0.20;;;;;;;7.07;70.84;101951.41;4989460;28;20073;-85
2024/02/21 03:19:57;;;;;;;0.20;0.20;;;;;;;7.18;71.06;101974.44;4989767;28;20026;-86
2024/02/21 03:22:22;;;;;;;0.20;0.20;;;;;;;7.10;70.99;101964.25;5005785;28;20034;-84
2024/02/21 03:24:48;;;;;;;0.20;0.20;;;;;;;7.18;70.92;101975.31;4989576;28;20058;-85
2024/02/21 03:27:13;;;;;;;0.20;0.20;;;;;;;7.15;70.83;101953.88;4989749;28;20080;-86
2024/02/21 03:29:39;;;;;;;0.13;0.13;;;;;;;7.17;70.85;101968.44;4989792;28;20492;-85
2024/02/21 03:32:04;;;;;;;0.20;0.20;;;;;;;7.19;70.69;101977.00;5005653;28;20088;-85
2024/02/21 03:34:30;;;;;;;0.20;0.20;;;;;;;7.21;71.06;101974.41;5005709;28;20027;-86
2024/02/21 03:36:55;;;;;;;0.20;0.20;;;;;;;7.22;70.65;101972.69;4989686;28;20026;-85
2024/02/21 03:39:21;;;;;;;0.20;0.20;;;;;;;7.23;70.48;101964.09;4990875;28;20030;-86
2024/02/21 03:41:47;;;;;;;0.20;0.20;;;;;;;7.21;70.65;101976.13;4989252;28;20050;-86
2024/02/21 03:44:12;;;;;;;0.20;0.20;;;;;;;7.06;70.76;101956.56;4989487;28;20628;-85
2024/02/21 03:46:38;;;;;;;0.17;0.17;;;;;;;7.12;70.73;101972.81;4989431;28;20787;-85
2024/02/21 03:49:03;;;;;;;0.20;0.20;;;;;;;7.09;70.70;101961.72;5009264;28;20493;-86
2024/02/21 03:51:29;;;;;;;0.20;0.20;;;;;;;7.23;70.33;101975.22;5009478;28;20512;-85
2024/02/21 03:53:54;;;;;;;0.20;0.20;;;;;;;7.09;70.80;101980.56;4993038;28;20034;-85
2024/02/21 03:56:20;;;;;;;0.20;0.20;;;;;;;6.86;71.47;101951.69;4976989;28;20030;-81
2024/02/21 03:58:45;;;;;;;0.20;0.20;;;;;;;6.98;71.59;101968.69;5009114;28;20393;-81
2024/02/21 04:01:12;;;;;;;0.20;0.20;;;;;;;7.17;70.96;101980.44;4992698;28;20485;-82
2024/02/21 04:03:37;;;;;;;0.20;0.20;;;;;;;7.15;70.84;101983.03;4992889;28;20022;-82
2024/02/21 04:06:03;;;;;;;0.20;0.20;;;;;;;7.12;70.83;101980.53;4992847;28;20065;-84
2024/02/21 04:08:29;;;;;;;0.20;0.20;;;;;;;7.06;70.83;101967.72;4980630;28;20116;-87
2024/02/21 04:10:54;;;;;;;0.20;0.20;;;;;;;7.01;70.83;101979.81;4995805;28;20104;-85
2024/02/21 04:13:20;;;;;;;0.20;0.20;;;;;;;7.08;71.08;101986.59;5012080;28;20036;-86
2024/02/21 04:15:45;;;;;;;0.20;0.20;;;;;;;7.06;70.93;101985.72;4995489;28;20041;-85
2024/02/21 04:18:11;;;;;;;0.20;0.20;;;;;;;7.07;70.83;101984.00;5011660;28;20503;-85
2024/02/21 04:20:36;;;;;;;0.20;0.20;;;;;;;6.97;71.09;101972.97;5011780;28;20504;-85
2024/02/21 04:23:02;;;;;;;0.20;0.20;;;;;;;6.74;71.03;101947.56;5011595;28;20037;-86
2024/02/21 04:25:28;;;;;;;0.20;0.20;;;;;;;6.75;71.07;101953.53;5011931;28;20048;-86
2024/02/21 04:27:53;;;;;;;0.20;0.20;;;;;;;6.87;70.91;101972.25;5011546;28;20451;-86
2024/02/21 04:30:19;;;;;;;0.20;0.20;;;;;;;6.89;70.95;101985.13;5011504;28;20033;-85
2024/02/21 04:32:44;;;;;;;0.20;0.20;;;;;;;6.64;71.73;101968.25;4995396;28;20059;-85
2024/02/21 04:35:10;;;;;;;0.20;0.20;;;;;;;6.80;71.34;101985.22;4995550;28;20026;-86
2024/02/21 04:37:35;;;;;;;0.13;0.13;;;;;;;6.68;71.33;101977.63;5011654;28;20159;-85
2024/02/21 04:40:01;;;;;;;0.20;0.20;;;;;;;6.60;71.17;101970.00;5011254;28;20123;-84
2024/02/21 04:42:27;;;;;;;0.20;0.20;;;;;;;6.67;71.08;101975.91;4978864;28;20077;-88
2024/02/21 04:44:53;;;;;;;0.20;0.20;;;;;;;6.77;71.68;101991.22;5011385;28;20412;-85
2024/02/21 04:47:19;;;;;;;0.20;0.20;;;;;;;6.88;71.21;101984.25;4995440;28;20121;-85
2024/02/21 04:49:45;;;;;;;0.20;0.20;;;;;;;6.88;71.17;101988.53;5011507;28;20034;-85
2024/02/21 04:52:11;;;;;;;0.20;0.20;;;;;;;6.86;71.45;101979.97;5011241;28;20034;-85
2024/02/21 04:54:37;;;;;;;0.20;0.20;;;;;;;6.93;70.76;101978.19;4995161;28;20488;-87
2024/02/21 04:57:02;;;;;;;0.20;0.20;;;;;;;6.82;71.04;101974.03;5011233;28;20037;-85
2024/02/21 04:59:29;;;;;;;0.20;0.20;;;;;;;6.81;71.31;101972.34;5010842;28;20029;-86
2024/02/21 05:01:54;;;;;;;0.20;0.20;;;;;;;6.54;71.79;101934.94;5011181;28;20113;-84
2024/02/21 05:04:20;;;;;;;0.20;0.20;;;;;;;6.93;71.25;101986.75;5010964;28;20124;-87
2024/02/21 05:06:45;;;;;;;0.20;0.20;;;;;;;6.80;71.66;101980.06;4998828;28;20026;-86
2024/02/21 05:09:11;;;;;;;0.20;0.20;;;;;;;6.87;71.75;101994.53;5005809;28;20022;-92
2024/02/21 05:11:40;;;;;;;0.20;0.20;;;;;;;6.92;71.03;102000.50;4974201;28;20034;-86
2024/02/21 05:14:05;;;;;;;0.20;0.20;;;;;;;6.86;70.84;101980.84;4975418;28;20036;-86
2024/02/21 05:16:34;;;;;;;0.20;0.20;;;;;;;6.85;71.33;101998.88;4991250;28;20034;-87
2024/02/21 05:18:59;;;;;;;0.20;0.20;;;;;;;6.89;71.10;101982.53;4971031;28;20130;-86
2024/02/21 05:21:25;;;;;;;0.20;0.20;;;;;;;6.87;70.92;101992.81;4991927;28;20153;-88
2024/02/21 05:23:51;;;;;;;0.20;0.20;;;;;;;6.73;71.36;101997.28;4991769;28;20061;-85
2024/02/21 05:26:21;;;;;;;0.20;0.20;;;;;;;6.69;71.65;101984.50;4991196;28;20101;-86
2024/02/21 05:28:47;;;;;;;0.20;0.20;;;;;;;6.50;71.75;101969.25;4992484;28;20030;-87
2024/02/21 05:31:14;;;;;;;0.20;0.20;;;;;;;6.58;72.08;101990.56;4992128;28;20100;-84
2024/02/21 05:33:39;;;;;;;0.20;0.20;;;;;;;6.64;71.69;101999.97;4990674;28;20043;-85
2024/02/21 05:36:05;;;;;;;0.20;0.20;;;;;;;6.69;71.56;102007.63;4993302;28;20380;-89
2024/02/21 05:38:31;;;;;;;0.20;0.20;;;;;;;6.64;71.55;102006.81;4992546;28;20125;-87
2024/02/21 05:40:57;;;;;;;0.20;0.20;;;;;;;6.66;71.54;102013.66;4990858;28;20045;-84
2024/02/21 05:43:22;;;;;;;0.20;0.20;;;;;;;6.69;71.15;102007.63;4991712;28;20105;-86
2024/02/21 05:45:48;;;;;;;0.20;0.20;;;;;;;6.75;71.31;102013.53;4971207;28;20118;-89
2024/02/21 05:48:14;;;;;;;0.20;0.20;;;;;;;6.75;71.34;102012.69;4987453;28;20045;-84
2024/02/21 05:50:39;;;;;;;0.20;0.20;;;;;;;6.75;71.28;102010.13;4990822;28;20040;-82
2024/02/21 05:53:05;;;;;;;0.20;0.20;;;;;;;6.78;71.38;102007.50;4988896;28;20158;-83
2024/02/21 05:55:30;;;;;;;0.20;0.20;;;;;;;6.80;71.57;102019.50;5004031;28;20034;-86
2024/02/21 05:57:56;;;;;;;0.20;0.20;;;;;;;6.79;71.06;101997.22;4988973;28;20031;-82
2024/02/21 06:00:21;;;;;;;0.10;0.10;;;;;;;6.72;71.33;101994.75;4988388;28;20031;-82
2024/02/21 06:02:47;;;;;;;0.20;0.20;;;;;;;6.86;71.47;102016.00;4988961;28;20089;-85
2024/02/21 06:05:12;;;;;;;0.20;0.20;;;;;;;6.93;71.26;102017.63;4990143;28;20038;-83
2024/02/21 06:07:38;;;;;;;0.20;0.20;;;;;;;6.98;71.32;102026.16;4989838;28;20041;-84
2024/02/21 06:10:04;;;;;;;0.20;0.20;;;;;;;6.95;71.11;102005.59;4969911;28;20026;-86
2024/02/21 06:12:30;;;;;;;0.20;0.20;;;;;;;6.92;71.21;101992.78;4982088;28;20503;-88
2024/02/21 06:14:55;;;;;;;0.20;0.20;;;;;;;7.12;71.10;102028.56;4979847;28;20026;-83
2024/02/21 06:17:21;;;;;;;0.20;0.20;;;;;;;6.87;71.02;101992.81;4988975;28;20026;-84
2024/02/21 06:19:46;;;;;;;0.20;0.20;;;;;;;6.98;70.90;101987.56;5005675;28;20034;-85
2024/02/21 06:22:12;;;;;;;0.20;0.20;;;;;;;7.33;70.57;102027.44;4986112;28;20416;-88
2024/02/21 06:24:38;;;;;;;0.10;0.10;;;;;;;7.30;70.65;102030.91;4994035;28;20069;-84
2024/02/21 06:27:05;;;;;;;0.20;0.20;;;;;;;7.18;70.59;102013.06;4982707;28;20026;-86
2024/02/21 06:29:31;;;;;;;0.20;0.20;;;;;;;7.42;70.37;102028.16;4984681;28;20381;-83
2024/02/21 06:31:57;;;;;;;0.20;0.20;;;;;;;7.41;70.10;102020.47;4988882;28;20404;-85
2024/02/21 06:34:24;;;;;;;0.20;0.20;;;;;;;7.53;70.13;102028.03;4986842;28;20121;-83
2024/02/21 06:36:49;;;;;;;0.20;0.20;;;;;;;7.61;69.88;102031.34;4990182;28;20057;-83
2024/02/21 06:39:15;;;;;;;0.20;0.20;;;;;;;7.53;70.00;102012.56;5005938;28;20164;-87
2024/02/21 06:41:40;;;;;;;0.20;0.20;;;;;;;7.75;69.80;102034.56;5005745;28;20061;-84
2024/02/21 06:44:06;;;;;;;0.20;0.20;;;;;;;7.73;69.81;102022.59;4998504;28;20037;-86
2024/02/21 06:46:34;;;;;;;0.20;0.20;;;;;;;7.85;69.25;102032.69;4992578;28;20074;-86
2024/02/21 06:49:00;;;;;;;0.20;0.20;;;;;;;8.04;69.02;102043.56;4982034;28;20041;-88
2024/02/21 06:51:26;;;;;;;0.20;0.20;;;;;;;8.14;68.70;102045.13;4991267;28;20031;-86
2024/02/21 06:53:52;;;;;;;0.20;0.20;;;;;;;8.17;69.00;102045.09;4990700;28;20034;-83
2024/02/21 06:56:18;;;;;;;0.20;0.20;;;;;;;8.26;68.86;102044.94;4992627;28;20030;-93
2024/02/21 06:58:43;;;;;;;0.20;0.20;;;;;;;8.39;68.61;102047.34;4993020;28;20102;-93
2024/02/21 07:01:10;;;;;;;0.20;0.20;;;;;;;8.36;68.47;102044.78;4992260;28;20574;-91
2024/02/21 07:03:35;;;;;;;0.20;0.20;;;;;;;8.50;68.51;102050.59;4972846;28;20042;-93
2024/02/21 07:06:01;;;;;;;0.20;0.20;;;;;;;8.52;68.60;102046.25;4984365;28;20031;-83
2024/02/21 07:08:27;;;;;;;0.20;0.20;;;;;;;8.61;68.47;102053.81;4993341;28;20096;-88
2024/02/21 07:10:52;;;;;;;0.20;0.20;;;;;;;8.73;68.44;102042.41;4990088;28;20085;-84
2024/02/21 07:13:18;;;;;;;0.20;0.20;;;;;;;8.90;68.18;102048.97;4972218;28;20134;-86
2024/02/21 07:15:43;;;;;;;0.20;0.20;;;;;;;8.98;68.43;102032.50;5005085;28;20038;-89
2024/02/21 07:18:09;;;;;;;0.20;0.20;;;;;;;9.20;68.18;102047.50;4990237;28;20069;-80
2024/02/21 07:20:36;;;;;;;0.20;0.20;;;;;;;9.33;67.79;102044.66;4977515;28;20031;-91
2024/02/21 07:23:02;;;;;;;0.20;0.20;;;;;;;9.26;67.60;102020.72;5007988;28;20042;-92
2024/02/21 07:25:28;;;;;;;0.20;0.20;;;;;;;9.57;66.83;102036.41;5007241;28;20023;-85
2024/02/21 07:27:53;;;;;;;0.20;0.20;;;;;;;9.61;66.38;102022.50;4993393;28;20494;-85
2024/02/21 07:30:19;;;;;;;0.20;0.20;;;;;;;9.91;66.34;102045.94;4993944;28;20436;-83
2024/02/21 07:32:44;;;;;;;0.20;0.20;;;;;;;10.06;65.20;102049.03;4972830;28;20113;-87
2024/02/21 07:35:10;;;;;;;0.20;0.20;;;;;;;10.23;65.44;102048.66;4974032;28;20053;-86
2024/02/21 07:37:37;;;;;;;0.20;0.20;;;;;;;10.44;64.18;102047.25;4991725;28;20054;-89
2024/02/21 07:40:06;;;;;;;0.20;0.20;;;;;;;10.60;64.11;102053.72;4989322;28;20088;-84
2024/02/21 07:42:32;;;;;;;0.20;0.20;;;;;;;10.79;63.17;102050.63;4983744;28;20051;-92
2024/02/21 07:44:58;;;;;;;0.20;0.20;;;;;;;10.93;62.30;102033.00;4990538;28;20118;-87
2024/02/21 07:47:24;;;;;;;0.20;0.20;;;;;;;11.20;62.01;102039.97;4983931;28;20026;-84
2024/02/21 07:49:49;;;;;;;0.20;0.20;;;;;;;11.36;61.68;102035.19;4988631;28;20027;-87
2024/02/21 07:52:15;;;;;;;0.20;0.20;;;;;;;11.53;59.75;102039.03;4972883;28;20495;-90
2024/02/21 07:54:41;;;;;;;0.20;0.20;;;;;;;11.59;59.73;102034.50;4994764;28;20033;-88
2024/02/21 07:57:07;;;;;;;0.20;0.20;;;;;;;11.53;58.99;102023.47;4975021;28;20027;-87
2024/02/21 07:59:33;;;;;;;0.20;0.20;;;;;;;11.61;58.67;102035.31;4993494;28;20096;-84
2024/02/21 08:01:58;;;;;;;0.20;0.20;;;;;;;11.60;59.14;102037.94;4991700;28;20456;-86
2024/02/21 08:04:24;;;;;;;0.20;0.20;;;;;;;11.63;59.20;102036.09;5009083;28;20038;-87
2024/02/21 08:06:53;;;;;;;0.20;0.20;;;;;;;11.74;58.27;102035.78;4989143;28;20030;-85
2024/02/21 08:09:19;;;;;;;0.20;0.20;;;;;;;11.73;58.77;102039.25;4992292;28;20415;-87
2024/02/21 08:11:45;;;;;;;0.20;0.20;;;;;;;11.81;58.67;102044.25;4991665;28;20030;-86
2024/02/21 08:14:11;;;;;;;0.20;0.20;;;;;;;11.72;58.30;102043.59;4991805;28;20149;-85
2024/02/21 08:16:37;;;;;;;0.20;0.20;;;;;;;11.66;58.30;102043.78;4992059;28;20026;-86
2024/02/21 08:19:04;;;;;;;0.20;0.20;;;;;;;11.72;58.01;102048.78;5000576;28;20030;-87
2024/02/21 08:21:29;;;;;;;0.20;0.20;;;;;;;11.29;58.62;102023.31;4993613;28;20034;-87
2024/02/21 08:23:55;;;;;;;0.20;0.20;;;;;;;11.44;58.69;102053.97;4998697;28;20117;-91
2024/02/21 08:26:20;;;;;;;0.20;0.20;;;;;;;11.49;58.86;102048.63;4975786;28;20030;-90
2024/02/21 08:28:46;;;;;;;0.20;0.20;;;;;;;11.43;58.35;102041.06;4994154;28;20081;-92
2024/02/21 08:31:18;;;;;;;0.20;0.20;;;;;;;11.55;58.82;102060.56;4993953;28;20030;-90
2024/02/21 08:33:44;;;;;;;0.20;0.20;;;;;;;11.49;58.30;102062.44;4975708;28;20088;-86
2024/02/21 08:36:09;;;;;;;0.20;0.20;;;;;;;11.47;58.09;102058.19;4989311;28;20022;-91
2024/02/21 08:38:35;;;;;;;0.20;0.20;;;;;;;11.44;58.18;102063.47;5000843;28;20093;-88
2024/02/21 08:41:00;;;;;;;0.20;0.20;;;;;;;11.47;58.56;102058.19;4991426;28;20041;-90
2024/02/21 08:43:26;;;;;;;0.20;0.20;;;;;;;11.35;58.54;102025.72;4988039;28;20059;-88
2024/02/21 08:45:51;;;;;;;0.20;0.20;;;;;;;11.46;58.76;102041.78;4973233;28;20030;-85
2024/02/21 08:48:17;;;;;;;0.20;0.20;;;;;;;11.60;58.53;102054.34;4975529;28;20042;-93
2024/02/21 08:50:43;;;;;;;0.20;0.20;;;;;;;11.75;57.55;102040.91;5005505;28;20022;-90
2024/02/21 08:53:08;;;;;;;0.20;0.20;;;;;;;11.84;57.44;102057.97;5011650;28;20034;-88
2024/02/21 08:55:35;;;;;;;0.20;0.20;;;;;;;12.03;56.46;102060.81;4989957;28;20070;-90
2024/02/21 08:58:01;;;;;;;0.20;0.20;;;;;;;12.10;56.56;102049.34;4986989;28;20034;-86
2024/02/21 09:00:27;;;;;;;0.20;0.20;;;;;;;12.23;56.18;102061.00;4986095;28;20049;-92
2024/02/21 09:02:52;;;;;;;0.20;0.20;;;;;;;12.31;55.98;102058.16;4992299;28;20455;-91
2024/02/21 09:05:18;;;;;;;0.20;0.20;;;;;;;12.44;55.04;102054.25;4997221;28;20480;-92
2024/02/21 09:07:44;;;;;;;0.20;0.20;;;;;;;12.41;55.32;102049.19;5012789;28;20084;-90
2024/02/21 09:10:09;;;;;;;0.20;0.20;;;;;;;12.53;55.17;102037.53;4982345;28;20112;-90
2024/02/21 09:12:35;;;;;;;0.20;0.20;;;;;;;12.58;55.38;102020.03;4993596;28;20034;-88
2024/02/21 09:15:00;;;;;;;0.20;0.20;;;;;;;12.93;54.55;102040.41;4992529;28;20085;-87
2024/02/21 09:17:29;;;;;;;0.20;0.20;;;;;;;13.06;54.55;102027.78;5010549;28;20022;-92
2024/02/21 09:19:55;;;;;;;0.20;0.20;;;;;;;13.05;54.25;102046.88;4994538;28;20026;-93
2024/02/21 09:22:21;;;;;;;0.20;0.20;;;;;;;13.31;52.99;102045.13;4992831;28;20045;-93
2024/02/21 09:24:47;;;;;;;0.20;0.20;;;;;;;13.43;53.69;102039.44;5008823;28;20030;-93
2024/02/21 09:27:13;;;;;;;0.20;0.20;;;;;;;13.35;52.39;102049.28;5011737;28;20045;-92
2024/02/21 09:29:39;;;;;;;0.20;0.20;;;;;;;13.64;51.95;102042.97;4979876;28;20038;-88
2024/02/21 09:32:05;;;;;;;0.20;0.20;;;;;;;13.63;51.53;102038.69;4991557;28;20034;-91
2024/02/21 09:34:30;;;;;;;0.20;0.20;;;;;;;13.78;51.14;102038.09;4972310;28;20023;-86
2024/02/21 09:36:56;;;;;;;0.20;0.20;;;;;;;13.53;51.59;102008.75;4991122;28;20077;-92
2024/02/21 09:39:22;;;;;;;0.20;0.20;;;;;;;13.75;51.47;102030.38;4992566;28;20099;-86
2024/02/21 09:41:55;;;;;;;0.20;0.20;;;;;;;13.72;51.53;102044.38;4990382;28;20065;-88
2024/02/21 09:44:20;;;;;;;0.20;0.20;;;;;;;13.82;51.07;102039.63;4983423;28;20034;-93
2024/02/21 09:47:05;;;;;;;0.20;0.20;;;;;;;14.02;50.57;102038.84;4978100;28;20040;-91
2024/02/21 09:49:35;;;;;;;0.20;0.20;;;;;;;14.07;50.23;102036.91;4990918;28;20133;-93
2024/02/21 09:52:04;;;;;;;0.20;0.20;;;;;;;14.16;48.87;102038.25;4989095;28;20026;-92
2024/02/21 09:54:31;;;;;;;0.20;0.20;;;;;;;14.30;49.16;102042.00;4989441;28;20122;-89
2024/02/21 09:56:56;;;;;;;0.20;0.20;;;;;;;14.26;49.56;102034.41;4992860;28;20037;-92
2024/02/21 09:59:23;;;;;;;0.20;0.20;;;;;;;14.40;49.34;102037.25;4992858;28;20030;-93
2024/02/21 10:01:50;;;;;;;0.20;0.20;;;;;;;14.30;48.19;102013.34;4990373;28;20416;-88
2024/02/21 10:04:15;;;;;;;0.20;0.20;;;;;;;14.35;48.57;102026.16;4990671;28;20039;-90
2024/02/21 10:06:41;;;;;;;0.20;0.20;;;;;;;14.37;48.77;102036.53;5003145;28;20060;-89
2024/02/21 10:09:07;;;;;;;0.20;0.20;;;;;;;14.42;47.92;102037.19;4976819;28;20031;-91
2024/02/21 10:11:36;;;;;;;0.20;0.20;;;;;;;14.46;47.18;102033.56;4990964;28;20489;-86
2024/02/21 10:14:07;;;;;;;0.20;0.20;;;;;;;14.69;47.94;102035.19;4989831;28;20034;-88
2024/02/21 10:16:33;;;;;;;0.20;0.20;;;;;;;14.38;47.87;102035.63;4989523;28;20030;-91
2024/02/21 10:18:59;;;;;;;0.20;0.20;;;;;;;13.97;49.05;102023.44;4993039;28;20521;-89
2024/02/21 10:21:25;;;;;;;0.20;0.20;;;;;;;13.84;49.08;101995.34;4990646;28;20510;-87
2024/02/21 10:23:51;;;;;;;0.20;0.20;;;;;;;13.99;49.16;102032.00;4995739;28;20034;-89
2024/02/21 10:26:20;;;;;;;0.20;0.20;;;;;;;13.83;49.33;102027.47;4972291;28;20058;-89
2024/02/21 10:28:47;;;;;;;0.20;0.20;;;;;;;13.73;49.31;102011.41;5006183;28;20040;-87
2024/02/21 10:31:23;;;;;;;0.20;0.20;;;;;;;13.78;49.42;102017.28;5008660;28;20037;-89
2024/02/21 10:33:56;;;;;;;0.20;0.20;;;;;;;13.62;49.89;102008.38;4992353;28;20025;-84
2024/02/21 10:36:22;;;;;;;0.20;0.20;;;;;;;13.71;49.41;102005.41;5009505;28;20484;-92
2024/02/21 10:38:47;;;;;;;0.20;0.20;;;;;;;13.72;49.65;101991.50;5003829;28;20038;-89
2024/02/21 10:41:16;;;;;;;0.20;0.20;;;;;;;13.63;49.69;101989.28;4990478;28;20521;-92
2024/02/21 10:43:42;;;;;;;0.20;0.20;;;;;;;13.70;50.07;101998.53;5006552;28;20065;-91
2024/02/21 10:46:08;;;;;;;0.20;0.20;;;;;;;13.83;49.67;101999.72;4988256;28;20042;-91
2024/02/21 10:48:44;;;;;;;0.20;0.20;;;;;;;14.00;49.94;101981.66;4990319;28;20484;-90
2024/02/21 10:51:20;;;;;;;0.20;0.20;;;;;;;14.04;48.79;101996.22;4989848;28;20054;-88
2024/02/21 10:53:54;;;;;;;0.20;0.20;;;;;;;13.98;49.50;101996.50;4975978;28;20061;-91
2024/02/21 10:56:28;;;;;;;0.20;0.20;;;;;;;13.95;49.04;101991.41;4990156;28;20061;-88
2024/02/21 10:58:55;;;;;;;0.20;0.20;;;;;;;13.96;49.11;101982.72;4982352;28;20033;-84
2024/02/21 11:01:21;;;;;;;0.20;0.20;;;;;;;13.92;49.31;101996.75;4979365;28;20062;-88
2024/02/21 11:03:47;;;;;;;0.20;0.20;;;;;;;13.61;48.22;101970.28;4989661;28;20033;-87
2024/02/21 11:06:13;;;;;;;0.20;0.20;;;;;;;13.45;48.76;101989.09;4974640;28;20060;-85
2024/02/21 11:08:38;;;;;;;0.20;0.20;;;;;;;13.34;49.57;101978.25;5006000;28;20511;-88
2024/02/21 11:11:04;;;;;;;0.20;0.20;;;;;;;13.33;49.77;101971.38;4987530;28;20026;-83
2024/02/21 11:13:32;;;;;;;0.20;0.20;;;;;;;13.13;51.48;101974.72;5008242;28;20073;-86
2024/02/21 11:16:11;;;;;;;0.20;0.20;;;;;;;13.17;51.54;101955.50;5006662;28;20523;-82
2024/02/21 11:18:37;;;;;;;0.20;0.20;;;;;;;13.14;51.49;101957.38;5008803;28;20026;-83
2024/02/21 11:21:04;;;;;;;0.20;0.20;;;;;;;13.16;52.05;101945.16;4984394;28;20034;-90
2024/02/21 11:23:30;;;;;;;0.20;0.20;;;;;;;13.30;52.03;101961.09;4969511;28;20039;-83
2024/02/21 11:26:09;;;;;;;0.20;0.20;;;;;;;13.25;52.85;101949.19;4985717;28;20516;-84
2024/02/21 11:28:36;;;;;;;0.20;0.20;;;;;;;13.16;53.40;101955.56;4985536;28;20106;-89